createdAt,value
2022-12-20T00:00:01.584Z,18.10
2022-12-20T00:02:55.661Z,19.17
2022-12-20T00:05:47.611Z,18.42
2022-12-20T00:08:21.706Z,18.85
2022-12-20T00:11:09.590Z,19.35
2022-12-20T00:13:42.691Z,18.55
2022-12-20T00:16:31.602Z,16.48
2022-12-20T00:19:16.615Z,16.92
2022-12-20T00:22:03.608Z,19.00
2022-12-20T00:24:43.617Z,19.92
2022-12-20T00:27:30.608Z,19.58
2022-12-20T00:30:03.671Z,19.02
2022-12-20T00:32:50.623Z,19.08
2022-12-20T00:35:30.633Z,17.58
2022-12-20T00:38:17.599Z,18.10
2022-12-20T00:40:50.687Z,17.65
2022-12-20T00:43:38.636Z,17.23
2022-12-20T00:46:12.671Z,17.45
2022-12-20T00:49:00.639Z,19.92
2022-12-20T00:51:36.690Z,18.13
2022-12-20T00:54:23.644Z,17.25
2022-12-20T00:57:03.608Z,17.45
2022-12-20T00:59:57.599Z,17.25
2022-12-20T01:02:44.705Z,16.45
2022-12-20T01:05:17.725Z,15.95
2022-12-20T01:08:04.635Z,16.60
2022-12-20T01:10:37.688Z,15.70
2022-12-20T01:13:24.600Z,17.45
2022-12-20T01:15:57.717Z,17.00
2022-12-20T01:18:44.607Z,16.45
2022-12-20T01:21:21.209Z,17.10
2022-12-20T01:24:07.620Z,15.90
2022-12-20T01:26:47.641Z,17.65
2022-12-20T01:29:34.625Z,17.95
2022-12-20T01:32:07.754Z,17.95
2022-12-20T01:34:54.615Z,16.55
2022-12-20T01:37:27.767Z,17.75
2022-12-20T01:40:16.646Z,17.27
2022-12-20T01:42:49.956Z,17.20
2022-12-20T01:45:44.649Z,15.48
2022-12-20T01:48:32.619Z,18.08
2022-12-20T01:51:12.622Z,17.98
2022-12-20T01:54:04.633Z,17.95
2022-12-20T01:56:37.691Z,15.57
2022-12-20T01:59:24.652Z,16.63
2022-12-20T02:02:04.876Z,15.98
2022-12-20T02:04:58.647Z,18.15
2022-12-20T02:07:45.640Z,17.23
2022-12-20T02:10:26.586Z,17.73
2022-12-20T02:13:28.649Z,16.02
2022-12-20T02:16:23.684Z,17.65
2022-12-20T02:20:09.651Z,18.40
2022-12-20T02:23:38.633Z,16.17
2022-12-20T02:26:46.647Z,15.80
2022-12-20T02:29:44.660Z,18.15
2022-12-20T02:32:42.652Z,19.48
2022-12-20T02:35:32.642Z,18.80
2022-12-20T02:38:08.708Z,16.42
2022-12-20T02:40:58.667Z,17.15
2022-12-20T02:43:53.533Z,17.80
2022-12-20T02:46:49.637Z,16.85
2022-12-20T02:49:49.632Z,15.48
2022-12-20T02:52:38.653Z,16.27
2022-12-20T02:55:13.747Z,17.45
2022-12-20T02:58:09.659Z,14.48
2022-12-20T03:00:49.734Z,14.98
2022-12-20T03:03:42.675Z,16.40
2022-12-20T03:06:22.651Z,16.95
2022-12-20T03:09:16.646Z,16.23
2022-12-20T03:12:03.663Z,17.92
2022-12-20T03:14:36.764Z,15.63
2022-12-20T03:17:23.663Z,15.95
2022-12-20T03:20:03.665Z,17.42
2022-12-20T03:22:50.692Z,16.73
2022-12-20T03:25:23.777Z,18.63
2022-12-20T03:28:10.703Z,18.75
2022-12-20T03:30:43.835Z,18.10
2022-12-20T03:33:30.682Z,17.83
2022-12-20T03:36:03.743Z,17.67
2022-12-20T03:38:50.689Z,19.25
2022-12-20T03:41:23.795Z,16.98
2022-12-20T03:44:12.799Z,18.15
2022-12-20T03:46:46.222Z,18.25
2022-12-20T03:49:32.693Z,18.55
2022-12-20T03:52:05.840Z,18.08
2022-12-20T03:54:55.676Z,16.83
2022-12-20T03:57:36.689Z,17.38
2022-12-20T04:00:23.720Z,18.77
2022-12-20T04:02:57.017Z,18.67
2022-12-20T04:05:43.706Z,20.73
2022-12-20T04:08:23.697Z,21.30
2022-12-20T04:11:24.691Z,21.55
2022-12-20T04:13:59.817Z,21.05
2022-12-20T04:16:48.690Z,19.42
2022-12-20T04:19:21.774Z,85.72
2022-12-20T04:22:10.707Z,49.65
2022-12-20T04:24:44.787Z,28.23
2022-12-20T04:27:31.724Z,24.63
2022-12-20T04:30:04.780Z,20.08
2022-12-20T04:32:51.742Z,24.35
2022-12-20T04:35:24.787Z,22.55
2022-12-20T04:38:12.698Z,20.13
2022-12-20T04:40:45.787Z,19.67
2022-12-20T04:43:34.740Z,20.67
2022-12-20T04:46:08.821Z,20.92
2022-12-20T04:48:58.399Z,21.45
2022-12-20T04:51:34.791Z,20.70
2022-12-20T04:54:21.724Z,20.05
2022-12-20T04:57:02.739Z,19.45
2022-12-20T04:59:58.736Z,20.17
2022-12-20T05:02:54.872Z,20.00
2022-12-20T05:05:50.695Z,23.88
2022-12-20T05:08:37.763Z,27.83
2022-12-20T05:11:20.735Z,26.95
2022-12-20T05:14:16.701Z,30.75
2022-12-20T05:17:10.749Z,31.42
2022-12-20T05:19:58.740Z,24.95
2022-12-20T05:22:51.739Z,19.10
2022-12-20T05:25:58.696Z,18.60
2022-12-20T05:28:31.841Z,19.65
2022-12-20T05:31:18.752Z,23.50
2022-12-20T05:33:52.780Z,21.05
2022-12-20T05:36:39.744Z,19.05
2022-12-20T05:39:12.860Z,19.17
2022-12-20T05:42:00.739Z,18.50
2022-12-20T05:44:40.739Z,20.67
2022-12-20T05:47:34.747Z,18.75
2022-12-20T05:50:23.847Z,20.35
2022-12-20T05:52:57.134Z,19.95
2022-12-20T05:55:43.735Z,17.60
2022-12-20T05:58:16.904Z,16.80
2022-12-20T06:01:03.739Z,15.63
2022-12-20T06:03:36.949Z,16.67
2022-12-20T06:06:23.729Z,17.50
2022-12-20T06:08:56.778Z,16.63
2022-12-20T06:11:43.730Z,18.95
2022-12-20T06:14:16.785Z,15.85
2022-12-20T06:17:03.747Z,17.77
2022-12-20T06:19:36.842Z,18.67
2022-12-20T06:22:23.721Z,18.05
2022-12-20T06:25:03.775Z,16.77
2022-12-20T06:27:57.794Z,18.98
2022-12-20T06:30:51.732Z,17.52
2022-12-20T06:33:38.787Z,16.33
2022-12-20T06:36:11.801Z,16.77
2022-12-20T06:38:58.742Z,17.35
2022-12-20T06:41:38.754Z,16.67
2022-12-20T06:44:32.747Z,17.85
2022-12-20T06:47:26.740Z,17.42
2022-12-20T06:50:21.746Z,18.02
2022-12-20T06:53:08.749Z,16.63
2022-12-20T06:55:41.811Z,18.50
2022-12-20T06:58:28.768Z,23.50
2022-12-20T07:01:01.896Z,20.63
2022-12-20T07:03:48.805Z,19.30
2022-12-20T07:06:28.751Z,18.98
2022-12-20T07:09:15.730Z,20.67
2022-12-20T07:11:48.805Z,17.98
2022-12-20T07:14:35.753Z,19.08
2022-12-20T07:17:16.753Z,18.83
2022-12-20T07:20:14.357Z,20.92
2022-12-20T07:23:01.751Z,20.83
2022-12-20T07:25:41.751Z,18.65
2022-12-20T07:28:36.820Z,19.90
2022-12-20T07:31:23.812Z,21.30
2022-12-20T07:33:57.822Z,19.27
2022-12-20T07:36:44.748Z,21.30
2022-12-20T07:39:25.764Z,19.27
2022-12-20T07:42:15.386Z,19.63
2022-12-20T07:44:49.823Z,18.85
2022-12-20T07:47:37.760Z,19.20
2022-12-20T07:50:18.799Z,18.65
2022-12-20T07:53:14.833Z,18.13
2022-12-20T07:56:03.747Z,18.00
2022-12-20T07:58:38.874Z,16.92
2022-12-20T08:01:33.963Z,17.02
2022-12-20T08:04:19.763Z,18.63
2022-12-20T08:07:17.049Z,19.27
2022-12-20T08:10:03.749Z,19.00
2022-12-20T08:12:38.337Z,17.60
2022-12-20T08:15:25.749Z,18.35
2022-12-20T08:18:05.767Z,18.63
2022-12-20T08:20:59.762Z,17.63
2022-12-20T08:23:46.798Z,18.85
2022-12-20T08:26:19.845Z,16.25
2022-12-20T08:29:08.812Z,18.70
2022-12-20T08:31:50.399Z,19.83
2022-12-20T08:34:37.748Z,18.60
2022-12-20T08:37:17.812Z,18.42
2022-12-20T08:40:11.779Z,16.17
2022-12-20T08:42:58.804Z,18.08
2022-12-20T08:45:31.837Z,19.13
2022-12-20T08:48:20.830Z,21.17
2022-12-20T08:51:01.811Z,22.98
2022-12-20T08:53:55.776Z,20.70
2022-12-20T08:56:42.794Z,20.20
2022-12-20T08:59:24.831Z,18.33
2022-12-20T09:02:18.973Z,20.60
2022-12-20T09:05:12.804Z,19.80
2022-12-20T09:08:00.833Z,21.92
2022-12-20T09:10:40.794Z,25.02
2022-12-20T09:13:27.771Z,23.70
2022-12-20T09:16:01.914Z,24.97
2022-12-20T09:18:48.788Z,27.00
2022-12-20T09:21:31.071Z,23.20
2022-12-20T09:24:17.783Z,20.70
2022-12-20T09:26:57.775Z,22.35
2022-12-20T09:29:44.803Z,21.55
2022-12-20T09:32:24.804Z,20.13
2022-12-20T09:35:22.982Z,22.15
2022-12-20T09:38:09.791Z,20.58
2022-12-20T09:40:49.812Z,18.80
2022-12-20T09:43:40.807Z,20.33
2022-12-20T09:46:26.872Z,19.02
2022-12-20T09:49:24.798Z,20.17
2022-12-20T09:52:36.807Z,19.42
2022-12-20T09:55:44.802Z,18.80
2022-12-20T09:58:37.863Z,21.90
2022-12-20T10:01:37.922Z,21.40
2022-12-20T10:04:19.061Z,21.25
2022-12-20T10:07:33.815Z,19.10
2022-12-20T10:10:31.779Z,18.90
2022-12-20T10:13:28.822Z,18.08
2022-12-20T10:16:34.886Z,18.75
2022-12-20T10:19:37.875Z,21.10
2022-12-20T10:22:32.810Z,19.50
2022-12-20T10:25:25.811Z,19.70
2022-12-20T10:28:19.795Z,18.48
2022-12-20T10:30:59.820Z,18.73
2022-12-20T10:33:47.815Z,19.35
2022-12-20T10:36:33.802Z,19.45
2022-12-20T10:39:27.822Z,20.00
2022-12-20T10:42:28.813Z,19.88
2022-12-20T10:45:03.898Z,21.10
2022-12-20T10:47:59.832Z,19.05
2022-12-20T10:50:53.803Z,20.40
2022-12-20T10:53:41.809Z,18.38
2022-12-20T10:56:38.899Z,18.63
2022-12-20T10:59:25.828Z,20.75
2022-12-20T11:01:58.997Z,17.50
2022-12-20T11:04:46.805Z,20.30
2022-12-20T11:07:33.011Z,20.35
2022-12-20T11:10:28.811Z,19.50
2022-12-20T11:13:14.820Z,19.40
2022-12-20T11:16:09.898Z,18.15
2022-12-20T11:19:15.809Z,18.48
2022-12-20T11:22:36.816Z,18.27
2022-12-20T11:25:22.936Z,17.58
2022-12-20T11:28:31.821Z,19.50
2022-12-20T11:31:19.928Z,19.00
2022-12-20T11:34:09.841Z,17.23
2022-12-20T11:37:26.834Z,19.17
2022-12-20T11:40:45.819Z,19.52
2022-12-20T11:44:24.101Z,18.13
2022-12-20T11:47:08.993Z,21.27
2022-12-20T11:50:22.831Z,19.27
2022-12-20T11:53:45.828Z,23.58
2022-12-20T11:56:44.596Z,20.90
2022-12-20T11:59:34.053Z,21.10
2022-12-20T12:02:41.920Z,18.65
2022-12-20T12:05:39.874Z,19.15
2022-12-20T12:08:39.835Z,19.58
2022-12-20T12:14:49.987Z,18.80
2022-12-20T12:17:48.857Z,22.70
2022-12-20T12:20:27.938Z,18.38
2022-12-20T12:23:35.837Z,18.20
2022-12-20T12:26:22.847Z,20.45
2022-12-20T12:29:22.853Z,18.92
2022-12-20T12:32:21.915Z,17.98
2022-12-20T12:35:24.868Z,17.77
2022-12-20T12:38:24.897Z,20.13
2022-12-20T12:41:20.937Z,18.33
2022-12-20T12:44:46.852Z,19.33
2022-12-20T12:47:27.935Z,18.88
2022-12-20T12:50:24.865Z,19.45
2022-12-20T12:53:03.960Z,19.95
2022-12-20T12:56:19.151Z,19.35
2022-12-20T12:59:22.277Z,20.98
2022-12-20T13:02:27.937Z,20.48
2022-12-20T13:05:25.842Z,18.08
2022-12-20T13:08:22.836Z,19.20
2022-12-20T13:10:55.964Z,19.17
2022-12-20T13:13:42.862Z,18.08
2022-12-20T13:16:48.178Z,18.58
2022-12-20T13:19:32.854Z,21.23
2022-12-20T13:22:23.074Z,21.42
2022-12-20T13:25:10.863Z,20.48
2022-12-20T13:27:49.409Z,20.67
2022-12-20T13:30:35.937Z,19.70
2022-12-20T13:33:33.857Z,21.00
2022-12-20T13:36:23.877Z,19.17
2022-12-20T13:39:03.013Z,20.50
2022-12-20T13:42:14.853Z,21.45
2022-12-20T13:44:58.857Z,20.48
2022-12-20T13:47:58.872Z,21.83
2022-12-20T13:50:55.889Z,24.27
2022-12-20T13:53:33.957Z,27.25
2022-12-20T13:56:40.896Z,24.27
2022-12-20T13:59:24.964Z,30.05
2022-12-20T14:02:24.046Z,26.98
2022-12-20T14:05:06.036Z,23.67
2022-12-20T14:08:05.889Z,23.17
2022-12-20T14:10:40.988Z,20.85
2022-12-20T14:13:33.869Z,20.98
2022-12-20T14:16:30.928Z,22.48
2022-12-20T14:19:21.876Z,21.35
2022-12-20T14:22:02.454Z,20.83
2022-12-20T14:24:57.863Z,20.63
2022-12-20T14:27:44.870Z,22.58
2022-12-20T14:30:43.954Z,22.23
2022-12-20T14:33:49.854Z,24.50
2022-12-20T14:36:43.904Z,24.40
2022-12-20T14:39:34.898Z,26.75
2022-12-20T14:42:13.992Z,24.77
2022-12-20T14:45:09.886Z,21.58
2022-12-20T14:47:50.910Z,21.63
2022-12-20T14:50:53.900Z,22.48
2022-12-20T14:53:40.883Z,19.45
2022-12-20T14:56:31.276Z,21.33
2022-12-20T14:59:24.874Z,22.35
2022-12-20T15:01:59.140Z,21.05
2022-12-20T15:04:45.898Z,23.10
2022-12-20T15:07:37.026Z,22.73
2022-12-20T15:10:23.893Z,20.85
2022-12-20T15:13:03.878Z,21.50
2022-12-20T15:15:51.975Z,21.45
2022-12-20T15:18:27.031Z,21.48
2022-12-20T15:21:21.898Z,20.30
2022-12-20T15:23:59.091Z,20.05
2022-12-20T15:26:45.909Z,22.10
2022-12-20T15:29:23.012Z,25.13
2022-12-20T15:32:21.900Z,25.50
2022-12-20T15:35:01.903Z,26.23
2022-12-20T15:37:55.910Z,25.23
2022-12-20T15:40:42.930Z,23.75
2022-12-20T15:43:31.027Z,24.13
2022-12-20T15:46:26.990Z,22.90
2022-12-20T15:49:30.894Z,24.73
2022-12-20T15:52:26.895Z,25.55
2022-12-20T15:55:00.016Z,25.48
2022-12-20T15:57:46.991Z,24.90
2022-12-20T16:00:21.045Z,25.35
2022-12-20T16:03:08.979Z,24.70
2022-12-20T16:05:48.952Z,25.15
2022-12-20T16:08:42.907Z,24.65
2022-12-20T16:11:34.885Z,23.55
2022-12-20T16:14:08.140Z,24.40
2022-12-20T16:16:56.906Z,23.75
2022-12-20T16:19:30.058Z,28.83
2022-12-20T16:22:34.897Z,28.05
2022-12-20T16:25:19.857Z,29.77
2022-12-20T16:28:13.922Z,29.95
2022-12-20T16:31:00.931Z,25.50
2022-12-20T16:33:34.043Z,22.70
2022-12-20T16:36:20.908Z,26.85
2022-12-20T16:38:55.128Z,26.13
2022-12-20T16:41:41.918Z,23.30
2022-12-20T16:44:23.023Z,24.00
2022-12-20T16:47:16.987Z,25.63
2022-12-20T16:50:10.924Z,24.58
2022-12-20T16:52:58.936Z,25.55
2022-12-20T16:55:39.669Z,27.02
2022-12-20T16:58:52.225Z,25.08
2022-12-20T17:01:30.082Z,22.90
2022-12-20T17:04:27.937Z,27.80
2022-12-20T17:07:14.950Z,22.17
2022-12-20T17:10:13.008Z,26.00
2022-12-20T17:13:06.927Z,28.55
2022-12-20T17:16:00.964Z,26.45
2022-12-20T17:19:02.949Z,21.60
2022-12-20T17:24:51.975Z,23.45
2022-12-20T17:27:38.938Z,19.88
2022-12-20T17:30:19.964Z,23.17
2022-12-20T17:33:13.939Z,21.75
2022-12-20T17:36:00.934Z,25.77
2022-12-20T17:38:34.056Z,22.10
2022-12-20T17:41:32.942Z,25.77
2022-12-20T17:44:09.119Z,30.90
2022-12-20T17:47:02.958Z,33.90
2022-12-20T17:49:56.962Z,30.67
2022-12-20T17:52:50.933Z,29.15
2022-12-20T17:55:38.947Z,34.17
2022-12-20T17:58:12.145Z,37.70
2022-12-20T18:00:59.008Z,34.10
2022-12-20T18:04:02.761Z,27.10
2022-12-20T18:06:53.956Z,28.38
2022-12-20T18:09:40.976Z,22.58
2022-12-20T18:12:17.108Z,23.60
2022-12-20T18:15:03.945Z,22.13
2022-12-20T18:17:37.874Z,24.75
2022-12-20T18:20:24.956Z,21.70
2022-12-20T18:23:00.238Z,19.88
2022-12-20T18:25:46.966Z,20.75
2022-12-20T18:28:20.079Z,20.15
2022-12-20T18:31:08.955Z,22.15
2022-12-20T18:33:43.062Z,22.30
2022-12-20T18:36:31.979Z,24.70
2022-12-20T18:39:13.003Z,21.55
2022-12-20T18:42:06.981Z,21.95
2022-12-20T18:44:53.964Z,20.73
2022-12-20T18:47:27.095Z,22.77
2022-12-20T18:50:13.979Z,21.80
2022-12-20T18:52:47.370Z,21.17
2022-12-20T18:55:33.978Z,20.08
2022-12-20T18:58:07.090Z,20.23
2022-12-20T19:00:53.995Z,21.98
2022-12-20T19:03:27.292Z,22.67
2022-12-20T19:06:13.968Z,22.02
2022-12-20T19:08:54.927Z,21.30
2022-12-20T19:11:54.606Z,21.92
2022-12-20T19:14:50.985Z,20.55
2022-12-20T19:17:44.987Z,22.45
2022-12-20T19:20:31.979Z,23.00
2022-12-20T19:23:05.075Z,24.88
2022-12-20T19:25:51.982Z,28.08
2022-12-20T19:28:25.103Z,29.85
2022-12-20T19:31:22.231Z,24.73
2022-12-20T19:34:04.997Z,24.33
2022-12-20T19:37:00.000Z,22.13
2022-12-20T19:39:46.967Z,19.95
2022-12-20T19:42:24.964Z,19.73
2022-12-20T19:45:12.073Z,20.75
2022-12-20T19:47:45.118Z,20.63
2022-12-20T19:50:31.978Z,23.67
2022-12-20T19:53:05.727Z,23.70
2022-12-20T19:55:58.989Z,24.35
2022-12-20T19:58:38.984Z,24.20
2022-12-20T20:01:28.268Z,22.42
2022-12-20T20:04:05.305Z,22.10
2022-12-20T20:06:52.042Z,21.95
2022-12-20T20:09:25.088Z,21.95
2022-12-20T20:12:11.983Z,23.15
2022-12-20T20:14:45.862Z,22.58
2022-12-20T20:17:32.990Z,24.27
2022-12-20T20:20:06.144Z,24.60
2022-12-20T20:22:52.989Z,25.13
2022-12-20T20:25:26.407Z,22.50
2022-12-20T20:28:13.029Z,24.30
2022-12-20T20:30:58.038Z,25.60
2022-12-20T20:33:45.010Z,27.98
2022-12-20T20:36:37.002Z,26.65
2022-12-20T20:39:31.032Z,25.02
2022-12-20T20:42:25.008Z,21.40
2022-12-20T20:45:12.001Z,19.75
2022-12-20T20:47:46.142Z,21.30
2022-12-20T20:50:33.006Z,22.63
2022-12-20T20:53:07.126Z,21.45
2022-12-20T20:55:54.015Z,22.08
2022-12-20T20:58:33.974Z,21.40
2022-12-20T21:01:29.051Z,21.67
2022-12-20T21:04:15.992Z,21.85
2022-12-20T21:06:49.221Z,22.52
2022-12-20T21:09:36.024Z,22.27
2022-12-20T21:12:09.363Z,21.02
2022-12-20T21:15:21.142Z,20.83
2022-12-20T21:17:49.094Z,20.55
2022-12-20T21:20:36.018Z,21.77
2022-12-20T21:23:09.122Z,19.95
2022-12-20T21:26:04.008Z,19.77
2022-12-20T21:28:38.168Z,19.38
2022-12-20T21:31:26.121Z,18.70
2022-12-20T21:33:59.238Z,20.77
2022-12-20T21:36:46.034Z,20.90
2022-12-20T21:39:20.130Z,22.23
2022-12-20T21:42:07.043Z,22.80
2022-12-20T21:44:40.136Z,21.63
2022-12-20T21:47:34.022Z,22.63
2022-12-20T21:50:28.024Z,26.23
2022-12-20T21:53:22.027Z,25.40
2022-12-20T21:56:10.037Z,24.38
2022-12-20T21:58:43.142Z,23.30
2022-12-20T22:01:33.159Z,24.10
2022-12-20T22:04:16.081Z,24.73
2022-12-20T22:07:03.026Z,27.58
2022-12-20T22:09:43.014Z,24.92
2022-12-20T22:12:30.030Z,23.55
2022-12-20T22:15:10.035Z,25.02
2022-12-20T22:18:04.058Z,25.83
2022-12-20T22:20:59.024Z,24.65
2022-12-20T22:23:47.070Z,22.15
2022-12-20T22:26:30.052Z,23.92
2022-12-20T22:29:18.042Z,22.10
2022-12-20T22:31:59.177Z,24.70
2022-12-20T22:34:53.022Z,23.38
2022-12-20T22:37:47.108Z,24.35
2022-12-20T22:40:41.039Z,25.48
2022-12-20T22:43:28.046Z,23.88
2022-12-20T22:49:10.083Z,23.67
2022-12-20T22:51:43.211Z,22.17
2022-12-20T22:54:30.050Z,22.85
2022-12-20T22:57:03.200Z,22.00
2022-12-20T22:59:50.095Z,21.58
2022-12-20T23:02:23.308Z,24.02
2022-12-20T23:05:10.045Z,22.23
2022-12-20T23:07:43.213Z,23.02
2022-12-20T23:10:48.072Z,23.98
2022-12-20T23:13:39.767Z,24.02
2022-12-20T23:16:31.139Z,23.17
2022-12-20T23:19:07.263Z,22.50
2022-12-20T23:22:13.083Z,21.63
2022-12-20T23:24:46.138Z,21.25
2022-12-20T23:27:33.086Z,21.67
2022-12-20T23:30:07.158Z,21.92
2022-12-20T23:32:54.045Z,21.83
2022-12-20T23:35:27.215Z,22.40
2022-12-20T23:38:14.060Z,21.45
2022-12-20T23:40:47.148Z,21.70
2022-12-20T23:43:37.091Z,21.60
2022-12-20T23:46:19.111Z,21.25
2022-12-20T23:49:13.072Z,20.58
2022-12-20T23:52:07.080Z,21.02
2022-12-20T23:54:54.098Z,23.55
2022-12-20T23:57:34.096Z,22.65
